createdAt,value
2019-02-26T00:02:25.941Z,65.30
2019-02-26T00:04:54.653Z,65.40
2019-02-26T00:07:25.204Z,65.70
2019-02-26T00:09:53.594Z,65.20
2019-02-26T00:12:23.854Z,64.80
2019-02-26T00:14:54.247Z,64.60
2019-02-26T00:17:21.836Z,64.50
2019-02-26T00:19:49.395Z,64.50
2019-02-26T00:22:18.240Z,65.20
2019-02-26T00:24:46.617Z,65.90
2019-02-26T00:27:14.322Z,66.00
2019-02-26T00:29:41.948Z,65.70
2019-02-26T00:32:11.610Z,65.80
2019-02-26T00:34:39.431Z,66.00
2019-02-26T00:37:08.523Z,66.00
2019-02-26T00:39:36.233Z,67.10
2019-02-26T00:42:05.615Z,66.90
2019-02-26T00:44:35.421Z,67.00
2019-02-26T00:47:04.824Z,67.10
2019-02-26T00:49:32.049Z,67.70
2019-02-26T00:51:59.505Z,68.20
2019-02-26T00:54:29.105Z,68.60
2019-02-26T00:56:59.076Z,68.40
2019-02-26T00:59:25.783Z,67.70
2019-02-26T01:01:54.742Z,67.30
2019-02-26T01:04:22.645Z,67.10
2019-02-26T01:06:50.216Z,66.90
2019-02-26T01:09:18.849Z,66.90
2019-02-26T01:11:47.617Z,66.90
2019-02-26T01:14:18.046Z,66.40
2019-02-26T01:16:46.140Z,66.00
2019-02-26T01:19:15.282Z,65.90
2019-02-26T01:21:44.190Z,65.90
2019-02-26T01:24:11.759Z,65.70
2019-02-26T01:26:42.549Z,65.70
2019-02-26T01:29:08.749Z,65.90
2019-02-26T01:31:36.338Z,66.60
2019-02-26T01:34:03.832Z,67.30
2019-02-26T01:36:31.357Z,67.80
2019-02-26T01:38:58.817Z,68.40
2019-02-26T01:41:27.289Z,68.90
2019-02-26T01:43:55.068Z,69.10
2019-02-26T01:46:22.671Z,69.00
2019-02-26T01:48:50.210Z,69.00
2019-02-26T01:51:19.372Z,69.00
2019-02-26T01:53:49.832Z,69.00
2019-02-26T01:56:19.943Z,68.80
2019-02-26T01:58:56.333Z,68.30
2019-02-26T02:01:19.210Z,68.10
2019-02-26T02:03:48.263Z,68.10
2019-02-26T02:06:17.724Z,68.30
2019-02-26T02:08:45.933Z,68.00
2019-02-26T02:11:14.811Z,67.70
2019-02-26T02:13:43.862Z,67.60
2019-02-26T02:16:11.492Z,67.80
2019-02-26T02:18:41.232Z,67.80
2019-02-26T02:21:10.228Z,67.80
2019-02-26T02:23:37.766Z,68.50
2019-02-26T02:26:07.119Z,69.00
2019-02-26T02:28:35.618Z,69.20
2019-02-26T02:31:03.531Z,69.50
2019-02-26T02:33:33.084Z,70.10
2019-02-26T02:36:00.506Z,69.70
2019-02-26T02:38:29.840Z,69.60
2019-02-26T02:40:57.429Z,70.00
2019-02-26T02:43:24.874Z,70.20
2019-02-26T02:45:53.159Z,70.30
2019-02-26T02:48:21.781Z,70.20
2019-02-26T02:50:49.259Z,70.30
2019-02-26T02:53:20.445Z,70.60
2019-02-26T02:55:47.073Z,70.70
2019-02-26T02:58:18.257Z,70.60
2019-02-26T03:00:46.189Z,70.00
2019-02-26T03:03:14.424Z,69.80
2019-02-26T03:05:43.803Z,69.50
2019-02-26T03:08:13.959Z,69.10
2019-02-26T03:10:43.099Z,68.90
2019-02-26T03:13:11.155Z,68.30
2019-02-26T03:15:38.571Z,67.60
2019-02-26T03:18:08.576Z,67.20
2019-02-26T03:20:40.169Z,66.20
2019-02-26T03:23:09.866Z,66.10
2019-02-26T03:25:37.251Z,66.30
2019-02-26T03:28:04.933Z,66.60
2019-02-26T03:30:38.812Z,67.20
2019-02-26T03:33:04.432Z,66.90
2019-02-26T03:35:32.484Z,66.40
2019-02-26T03:38:01.397Z,66.10
2019-02-26T03:40:30.722Z,65.70
2019-02-26T03:42:58.977Z,65.40
2019-02-26T03:45:26.524Z,65.50
2019-02-26T03:47:55.450Z,66.30
2019-02-26T03:50:26.346Z,65.90
2019-02-26T03:52:52.989Z,66.30
2019-02-26T03:55:20.540Z,66.90
2019-02-26T03:57:50.600Z,66.80
2019-02-26T04:00:19.948Z,66.70
2019-02-26T04:02:49.060Z,67.60
2019-02-26T04:05:16.597Z,69.00
2019-02-26T04:07:44.194Z,68.80
2019-02-26T04:10:12.649Z,69.10
2019-02-26T04:12:42.246Z,68.90
2019-02-26T04:15:12.533Z,68.60
2019-02-26T04:17:42.187Z,68.80
2019-02-26T04:20:10.240Z,69.00
2019-02-26T04:22:40.204Z,68.90
2019-02-26T04:25:37.168Z,68.80
2019-02-26T04:28:11.483Z,68.60
2019-02-26T04:31:10.328Z,68.20
2019-02-26T04:33:49.962Z,68.20
2019-02-26T04:37:04.563Z,67.80
2019-02-26T04:40:15.181Z,67.40
2019-02-26T04:43:33.417Z,66.80
2019-02-26T04:46:26.057Z,67.00
2019-02-26T04:48:55.083Z,67.40
2019-02-26T04:51:22.607Z,67.80
2019-02-26T04:53:51.782Z,68.30
2019-02-26T04:56:19.745Z,68.60
2019-02-26T04:58:47.782Z,68.90
2019-02-26T05:01:18.411Z,68.90
2019-02-26T05:03:45.010Z,68.90
2019-02-26T05:06:12.521Z,69.00
2019-02-26T05:08:40.737Z,68.80
2019-02-26T05:11:14.877Z,68.60
2019-02-26T05:13:39.062Z,68.20
2019-02-26T05:16:08.460Z,67.80
2019-02-26T05:18:36.025Z,67.80
2019-02-26T05:21:05.226Z,67.90
2019-02-26T05:23:35.832Z,68.00
2019-02-26T05:26:05.629Z,68.40
2019-02-26T05:28:35.325Z,68.90
2019-02-26T05:31:17.246Z,69.20
2019-02-26T05:33:44.184Z,69.20
2019-02-26T05:36:14.225Z,69.50
2019-02-26T05:38:41.174Z,69.60
2019-02-26T05:41:08.778Z,69.50
2019-02-26T05:43:36.359Z,69.30
2019-02-26T05:46:04.148Z,69.80
2019-02-26T05:48:31.742Z,69.80
2019-02-26T05:51:02.943Z,69.60
2019-02-26T05:53:29.788Z,69.30
2019-02-26T05:55:57.271Z,69.40
2019-02-26T05:58:24.792Z,69.60
2019-02-26T06:00:52.817Z,69.60
2019-02-26T06:03:20.404Z,69.30
2019-02-26T06:05:49.012Z,69.00
2019-02-26T06:08:17.352Z,69.20
2019-02-26T06:10:45.177Z,69.10
2019-02-26T06:13:13.590Z,68.80
2019-02-26T06:15:43.165Z,68.60
2019-02-26T06:18:10.777Z,69.20
2019-02-26T06:20:38.422Z,69.30
2019-02-26T06:23:06.177Z,68.90
2019-02-26T06:25:33.754Z,69.10
2019-02-26T06:28:04.453Z,69.40
2019-02-26T06:30:30.903Z,69.30
2019-02-26T06:33:02.107Z,69.00
2019-02-26T06:35:28.059Z,69.00
2019-02-26T06:37:55.542Z,69.00
2019-02-26T06:40:23.059Z,69.00
2019-02-26T06:42:50.663Z,69.20
2019-02-26T06:45:18.249Z,68.90
2019-02-26T06:47:48.637Z,69.00
2019-02-26T06:50:16.594Z,69.10
2019-02-26T06:52:47.330Z,68.80
2019-02-26T06:55:14.146Z,69.10
2019-02-26T06:57:43.976Z,69.20
2019-02-26T07:00:12.311Z,68.70
2019-02-26T07:02:40.026Z,68.90
2019-02-26T07:05:09.745Z,69.00
2019-02-26T07:07:37.379Z,69.40
2019-02-26T07:10:06.119Z,69.90
2019-02-26T07:12:34.826Z,70.40
2019-02-26T07:15:02.478Z,70.60
2019-02-26T07:17:33.732Z,70.30
2019-02-26T07:20:00.409Z,69.80
2019-02-26T07:22:29.344Z,69.80
2019-02-26T07:24:57.076Z,69.70
2019-02-26T07:27:26.337Z,69.20
2019-02-26T07:29:54.375Z,69.10
2019-02-26T07:32:22.751Z,69.30
2019-02-26T07:34:52.185Z,69.10
2019-02-26T07:37:20.058Z,69.40
2019-02-26T07:39:49.599Z,69.60
2019-02-26T07:42:37.276Z,69.70
2019-02-26T07:45:14.655Z,69.80
2019-02-26T07:47:36.299Z,69.70
2019-02-26T07:50:06.676Z,69.90
2019-02-26T07:52:34.249Z,70.10
2019-02-26T07:55:03.574Z,70.10
2019-02-26T07:57:31.176Z,70.10
2019-02-26T07:59:59.859Z,69.90
2019-02-26T08:02:27.828Z,69.40
2019-02-26T08:04:56.935Z,69.40
2019-02-26T08:07:28.151Z,69.30
2019-02-26T08:09:55.512Z,69.00
2019-02-26T08:12:23.179Z,68.60
2019-02-26T08:14:50.740Z,68.70
2019-02-26T08:17:18.362Z,68.90
2019-02-26T08:19:47.299Z,68.90
2019-02-26T08:22:15.573Z,68.90
2019-02-26T08:24:43.256Z,68.50
2019-02-26T08:27:13.583Z,68.40
2019-02-26T08:29:43.148Z,69.10
2019-02-26T08:32:13.723Z,69.30
2019-02-26T08:34:40.327Z,69.60
2019-02-26T08:37:08.033Z,69.80
2019-02-26T08:39:35.654Z,70.60
2019-02-26T08:42:06.981Z,69.60
2019-02-26T08:44:34.692Z,69.60
2019-02-26T08:47:06.061Z,69.30
2019-02-26T08:49:35.127Z,69.20
2019-02-26T08:52:02.403Z,69.30
2019-02-26T08:54:33.182Z,69.30
2019-02-26T08:57:00.508Z,69.70
2019-02-26T08:59:28.114Z,69.80
2019-02-26T09:01:55.615Z,69.10
2019-02-26T09:04:23.912Z,68.20
2019-02-26T09:06:54.693Z,67.80
2019-02-26T09:09:25.340Z,67.60
2019-02-26T09:11:54.804Z,67.00
2019-02-26T09:14:21.978Z,65.70
2019-02-26T09:16:51.903Z,65.90
2019-02-26T09:19:18.866Z,65.90
2019-02-26T09:21:47.816Z,65.50
2019-02-26T09:24:15.946Z,65.80
2019-02-26T09:26:43.636Z,65.50
2019-02-26T09:29:14.969Z,65.00
2019-02-26T09:31:42.523Z,64.80
2019-02-26T09:34:10.114Z,64.30
2019-02-26T09:36:38.749Z,63.90
2019-02-26T09:39:19.240Z,63.50
2019-02-26T09:41:47.110Z,63.00
2019-02-26T09:44:14.703Z,63.40
2019-02-26T09:46:43.922Z,62.40
2019-02-26T09:49:12.809Z,62.00
2019-02-26T09:51:40.446Z,61.60
2019-02-26T09:54:10.936Z,61.30
2019-02-26T09:56:39.705Z,61.00
2019-02-26T09:59:09.672Z,60.90
2019-02-26T10:01:37.823Z,60.80
2019-02-26T10:04:06.099Z,60.70
2019-02-26T10:06:34.904Z,60.50
2019-02-26T10:09:05.075Z,60.00
2019-02-26T10:11:33.576Z,59.60
2019-02-26T10:14:02.901Z,59.00
2019-02-26T10:16:32.954Z,58.90
2019-02-26T10:19:00.060Z,58.20
2019-02-26T10:21:27.749Z,57.80
2019-02-26T10:23:56.869Z,56.80
2019-02-26T10:29:07.844Z,58.00
2019-02-26T10:31:40.210Z,58.10
2019-02-26T10:34:07.949Z,58.10
2019-02-26T10:36:40.783Z,58.00
2019-02-26T10:39:07.483Z,58.30
2019-02-26T10:41:39.290Z,57.90
2019-02-26T10:44:06.306Z,57.60
2019-02-26T10:46:37.148Z,56.80
2019-02-26T10:49:05.137Z,55.60
2019-02-26T10:51:34.562Z,52.10
2019-02-26T10:54:02.817Z,52.60
2019-02-26T10:56:35.372Z,48.50
2019-02-26T10:59:03.572Z,49.60
2019-02-26T11:01:33.670Z,49.60
2019-02-26T11:04:01.416Z,49.00
2019-02-26T11:06:30.544Z,48.00
2019-02-26T11:09:01.829Z,47.90
2019-02-26T11:11:32.782Z,46.60
2019-02-26T11:14:01.489Z,46.00
2019-02-26T11:16:31.028Z,46.60
2019-02-26T11:18:59.234Z,46.20
2019-02-26T11:21:27.849Z,43.10
2019-02-26T11:23:55.550Z,44.00
2019-02-26T11:26:23.212Z,44.60
2019-02-26T11:28:50.887Z,44.20
2019-02-26T11:31:20.120Z,44.00
2019-02-26T11:33:48.234Z,42.50
2019-02-26T11:36:16.426Z,43.00
2019-02-26T11:38:44.525Z,43.60
2019-02-26T11:41:13.458Z,43.20
2019-02-26T11:43:41.061Z,43.20
2019-02-26T11:46:08.808Z,41.20
2019-02-26T11:48:36.421Z,40.00
2019-02-26T11:51:04.293Z,39.30
2019-02-26T11:53:31.945Z,39.40
2019-02-26T11:56:01.872Z,38.40
2019-02-26T11:58:29.121Z,37.80
2019-02-26T12:01:00.086Z,38.90
2019-02-26T12:03:30.437Z,39.20
2019-02-26T12:06:00.576Z,38.40
2019-02-26T12:08:26.608Z,39.50
2019-02-26T12:10:57.641Z,37.90
2019-02-26T12:13:25.082Z,37.50
2019-02-26T12:15:52.936Z,37.60
2019-02-26T12:18:22.496Z,37.10
2019-02-26T12:20:50.138Z,36.90
2019-02-26T12:23:19.839Z,34.50
2019-02-26T12:25:47.198Z,35.70
2019-02-26T12:28:16.027Z,37.60
2019-02-26T12:30:46.598Z,37.00
2019-02-26T12:33:14.810Z,36.80
2019-02-26T12:35:43.641Z,37.30
2019-02-26T12:38:18.199Z,35.60
2019-02-26T12:40:46.323Z,35.30
2019-02-26T12:43:12.543Z,35.40
2019-02-26T12:45:40.842Z,34.10
2019-02-26T12:48:12.610Z,33.30
2019-02-26T12:53:12.605Z,34.50
2019-02-26T12:55:41.763Z,34.30
2019-02-26T12:58:07.790Z,34.50
2019-02-26T13:00:37.750Z,34.80
2019-02-26T13:03:05.569Z,34.30
2019-02-26T13:05:35.241Z,33.00
2019-02-26T13:08:03.724Z,32.40
2019-02-26T13:10:31.352Z,31.20
2019-02-26T13:13:02.338Z,31.70
2019-02-26T13:15:28.394Z,31.40
2019-02-26T13:17:57.728Z,30.80
2019-02-26T13:20:25.239Z,30.20
2019-02-26T13:22:56.513Z,29.60
2019-02-26T13:25:26.358Z,29.80
2019-02-26T13:27:51.900Z,30.20
2019-02-26T13:30:21.007Z,29.50
2019-02-26T13:32:56.182Z,29.90
2019-02-26T13:35:19.374Z,29.10
2019-02-26T13:37:47.814Z,28.90
2019-02-26T13:40:18.293Z,28.10
2019-02-26T13:42:49.899Z,27.40
2019-02-26T13:45:18.673Z,28.10
2019-02-26T13:47:46.526Z,27.90
2019-02-26T13:50:21.755Z,27.10
2019-02-26T13:52:49.424Z,27.80
2019-02-26T13:55:29.285Z,26.60
2019-02-26T13:57:56.949Z,26.60
2019-02-26T14:00:26.801Z,26.30
2019-02-26T14:02:54.049Z,27.10
2019-02-26T14:05:22.770Z,25.70
2019-02-26T14:07:50.641Z,27.10
2019-02-26T14:10:18.266Z,26.30
2019-02-26T14:12:46.006Z,26.10
2019-02-26T14:15:17.123Z,26.50
2019-02-26T14:17:44.809Z,27.30
2019-02-26T14:20:12.573Z,24.50
2019-02-26T14:22:40.303Z,25.70
2019-02-26T14:25:08.473Z,25.50
2019-02-26T14:27:36.353Z,26.50
2019-02-26T14:30:04.732Z,25.40
2019-02-26T14:32:33.710Z,27.90
2019-02-26T14:35:02.731Z,27.60
2019-02-26T14:37:31.850Z,26.50
2019-02-26T14:39:59.593Z,24.30
2019-02-26T14:42:40.015Z,25.20
2019-02-26T14:45:10.472Z,24.50
2019-02-26T14:47:38.180Z,25.10
2019-02-26T14:50:07.760Z,24.60
2019-02-26T14:52:35.393Z,25.00
2019-02-26T14:55:05.159Z,25.70
2019-02-26T14:57:34.136Z,27.00
2019-02-26T15:00:01.851Z,27.10
2019-02-26T15:02:32.504Z,27.90
2019-02-26T15:05:00.303Z,29.90
2019-02-26T15:07:30.584Z,28.70
2019-02-26T15:09:58.420Z,28.20
2019-02-26T15:12:26.224Z,27.90
2019-02-26T15:14:53.959Z,29.00
2019-02-26T15:17:22.112Z,27.90
2019-02-26T15:19:53.150Z,28.30
2019-02-26T15:22:19.264Z,29.20
2019-02-26T15:24:46.953Z,27.50
2019-02-26T15:27:14.618Z,26.50
2019-02-26T15:29:42.296Z,27.40
2019-02-26T15:32:09.945Z,25.20
2019-02-26T15:34:37.633Z,25.80
2019-02-26T15:37:05.396Z,25.40
2019-02-26T15:39:33.223Z,25.20
2019-02-26T15:42:02.679Z,26.20
2019-02-26T15:44:30.423Z,26.50
2019-02-26T15:46:59.613Z,26.20
2019-02-26T15:49:28.539Z,25.90
2019-02-26T15:51:56.255Z,26.90
2019-02-26T15:54:25.291Z,28.30
2019-02-26T15:56:53.330Z,28.40
2019-02-26T15:59:20.999Z,30.30
2019-02-26T16:01:48.635Z,30.70
2019-02-26T16:04:16.306Z,31.70
2019-02-26T16:06:44.171Z,32.40
2019-02-26T16:09:12.506Z,31.40
2019-02-26T16:11:41.795Z,30.40
2019-02-26T16:14:09.449Z,29.90
2019-02-26T16:16:37.202Z,29.90
2019-02-26T16:19:04.850Z,29.90
2019-02-26T16:21:32.557Z,30.20
2019-02-26T16:24:00.426Z,29.50
2019-02-26T16:26:28.039Z,29.70
2019-02-26T16:28:56.458Z,29.80
2019-02-26T16:31:29.675Z,29.80
2019-02-26T16:33:56.189Z,31.30
2019-02-26T16:36:25.762Z,31.60
2019-02-26T16:38:55.121Z,33.60
2019-02-26T16:41:22.710Z,34.30
2019-02-26T16:43:51.827Z,35.00
2019-02-26T16:46:20.118Z,35.20
2019-02-26T16:48:48.847Z,35.90
2019-02-26T16:51:16.643Z,37.20
2019-02-26T16:53:46.023Z,37.20
2019-02-26T16:56:13.728Z,36.50
2019-02-26T16:58:41.517Z,37.40
2019-02-26T17:01:28.861Z,38.30
2019-02-26T17:03:56.703Z,38.50
2019-02-26T17:06:24.348Z,39.20
2019-02-26T17:08:52.198Z,39.20
2019-02-26T17:11:20.108Z,39.90
2019-02-26T17:13:47.747Z,40.30
2019-02-26T17:16:17.038Z,40.80
2019-02-26T17:18:44.956Z,40.90
2019-02-26T17:21:13.703Z,40.80
2019-02-26T17:23:44.803Z,42.40
2019-02-26T17:26:19.248Z,41.80
2019-02-26T17:29:06.342Z,42.70
2019-02-26T17:31:35.290Z,42.00
2019-02-26T17:34:03.084Z,42.80
2019-02-26T17:36:32.645Z,42.00
2019-02-26T17:39:00.108Z,43.00
2019-02-26T17:41:27.728Z,42.50
2019-02-26T17:43:56.824Z,43.10
2019-02-26T17:46:25.043Z,43.70
2019-02-26T17:48:54.448Z,43.70
2019-02-26T17:51:22.070Z,44.00
2019-02-26T17:53:49.622Z,45.00
2019-02-26T17:56:17.254Z,45.10
2019-02-26T17:58:45.020Z,44.90
2019-02-26T18:01:12.814Z,44.90
2019-02-26T18:03:44.557Z,45.50
2019-02-26T18:06:10.749Z,45.40
2019-02-26T18:08:38.363Z,45.00
2019-02-26T18:11:06.054Z,44.20
2019-02-26T18:13:34.662Z,43.80
2019-02-26T18:16:09.223Z,43.40
2019-02-26T18:18:34.410Z,43.60
2019-02-26T18:21:05.715Z,43.80
2019-02-26T18:23:32.167Z,43.50
2019-02-26T18:25:59.771Z,44.40
2019-02-26T18:28:27.464Z,44.70
2019-02-26T18:30:55.198Z,45.50
2019-02-26T18:33:22.773Z,45.60
2019-02-26T18:35:50.076Z,46.00
2019-02-26T18:38:17.488Z,45.80
2019-02-26T18:40:44.937Z,46.80
2019-02-26T18:43:14.441Z,47.10
2019-02-26T18:45:41.699Z,47.60
2019-02-26T18:48:09.225Z,48.20
2019-02-26T18:50:36.620Z,48.60
2019-02-26T18:53:04.009Z,48.60
2019-02-26T18:55:32.536Z,48.90
2019-02-26T18:58:00.346Z,48.90
2019-02-26T19:00:27.831Z,49.40
2019-02-26T19:02:55.366Z,49.40
2019-02-26T19:05:23.700Z,49.40
2019-02-26T19:07:51.425Z,49.50
2019-02-26T19:10:20.866Z,50.00
2019-02-26T19:12:48.601Z,50.00
2019-02-26T19:15:16.822Z,49.90
2019-02-26T19:17:46.345Z,50.80
2019-02-26T19:20:14.914Z,51.20
2019-02-26T19:22:43.038Z,51.10
2019-02-26T19:25:10.872Z,49.70
2019-02-26T19:27:39.548Z,49.70
2019-02-26T19:30:09.999Z,49.90
2019-02-26T19:32:37.979Z,49.80
2019-02-26T19:35:12.340Z,49.70
2019-02-26T19:37:37.144Z,50.50
2019-02-26T19:40:06.553Z,50.30
2019-02-26T19:42:34.099Z,50.40
2019-02-26T19:45:03.485Z,50.30
2019-02-26T19:47:33.664Z,51.60
2019-02-26T19:50:03.038Z,51.30
2019-02-26T19:52:34.427Z,51.40
2019-02-26T19:55:02.710Z,52.00
2019-02-26T19:57:35.701Z,51.80
2019-02-26T20:00:04.022Z,51.30
2019-02-26T20:02:34.751Z,51.70
2019-02-26T20:05:02.831Z,52.80
2019-02-26T20:07:33.147Z,54.30
2019-02-26T20:10:02.197Z,53.70
2019-02-26T20:12:32.222Z,54.40
2019-02-26T20:15:02.764Z,54.00
2019-02-26T20:17:31.549Z,53.40
2019-02-26T20:19:58.967Z,53.90
2019-02-26T20:22:30.574Z,53.80
2019-02-26T20:24:58.014Z,53.30
2019-02-26T20:27:25.402Z,53.90
2019-02-26T20:29:52.735Z,53.60
2019-02-26T20:32:21.361Z,53.40
2019-02-26T20:34:48.813Z,53.60
2019-02-26T20:37:16.364Z,53.60
2019-02-26T20:39:44.249Z,53.40
2019-02-26T20:42:13.322Z,53.70
2019-02-26T20:44:45.402Z,53.70
2019-02-26T20:47:12.909Z,53.90
2019-02-26T20:49:40.315Z,53.90
2019-02-26T20:52:07.660Z,54.00
2019-02-26T20:54:35.144Z,54.00
2019-02-26T20:57:03.929Z,53.90
2019-02-26T20:59:31.882Z,54.00
2019-02-26T21:01:59.507Z,53.80
2019-02-26T21:04:30.035Z,54.40
2019-02-26T21:06:57.580Z,54.50
2019-02-26T21:09:25.143Z,54.80
2019-02-26T21:11:59.712Z,55.90
2019-02-26T21:14:27.043Z,55.10
2019-02-26T21:16:54.422Z,55.40
2019-02-26T21:19:21.808Z,55.40
2019-02-26T21:21:50.481Z,56.20
2019-02-26T21:24:17.909Z,55.80
2019-02-26T21:26:45.274Z,56.00
2019-02-26T21:29:12.876Z,56.30
2019-02-26T21:31:42.146Z,56.00
2019-02-26T21:34:09.580Z,55.90
2019-02-26T21:36:38.063Z,56.10
2019-02-26T21:39:10.767Z,55.80
2019-02-26T21:41:37.601Z,56.10
2019-02-26T21:44:08.728Z,56.30
2019-02-26T21:46:37.599Z,56.50
2019-02-26T21:49:05.045Z,56.30
2019-02-26T21:51:33.941Z,56.80
2019-02-26T21:54:01.526Z,57.10
2019-02-26T21:56:28.941Z,57.50
2019-02-26T21:58:56.967Z,57.60
2019-02-26T22:01:25.456Z,57.40
2019-02-26T22:03:52.801Z,56.80
2019-02-26T22:06:20.514Z,56.80
2019-02-26T22:08:48.002Z,56.70
2019-02-26T22:11:15.837Z,56.40
2019-02-26T22:13:44.566Z,56.80
2019-02-26T22:16:11.897Z,57.10
2019-02-26T22:18:39.211Z,57.00
2019-02-26T22:21:06.567Z,57.40
2019-02-26T22:23:34.784Z,57.20
2019-02-26T22:26:02.408Z,57.40
2019-02-26T22:28:31.546Z,57.90
2019-02-26T22:30:58.854Z,58.10
2019-02-26T22:33:26.532Z,58.30
2019-02-26T22:35:53.859Z,59.20
2019-02-26T22:38:21.287Z,58.30
2019-02-26T22:40:48.610Z,58.10
2019-02-26T22:43:16.103Z,57.90
2019-02-26T22:45:43.546Z,57.60
2019-02-26T22:48:13.425Z,58.20
2019-02-26T22:50:41.461Z,58.30
2019-02-26T22:53:08.855Z,58.30
2019-02-26T22:55:36.215Z,58.70
2019-02-26T22:58:03.561Z,58.90
2019-02-26T23:01:12.009Z,59.50
2019-02-26T23:03:45.701Z,59.10
2019-02-26T23:06:10.887Z,59.10
2019-02-26T23:08:38.523Z,58.90
2019-02-26T23:11:06.566Z,59.40
2019-02-26T23:13:33.911Z,59.40
2019-02-26T23:16:02.913Z,59.40
2019-02-26T23:18:31.631Z,59.90
2019-02-26T23:21:02.461Z,60.10
2019-02-26T23:23:31.034Z,60.40
2019-02-26T23:26:00.356Z,60.20
2019-02-26T23:28:28.034Z,59.50
2019-02-26T23:30:59.620Z,59.40
2019-02-26T23:33:25.107Z,58.70
2019-02-26T23:35:54.839Z,59.50
2019-02-26T23:38:23.653Z,58.60
2019-02-26T23:40:51.009Z,58.70
2019-02-26T23:43:18.346Z,58.40
2019-02-26T23:45:45.773Z,58.20
2019-02-26T23:48:13.278Z,58.50
2019-02-26T23:50:40.630Z,58.60
2019-02-26T23:53:08.023Z,58.40
2019-02-26T23:55:36.512Z,58.30
2019-02-26T23:58:03.989Z,58.30
